Loma Rica, California
Current Conditions -  °F | °C
As of 9:43 AM on Friday 21 Nov 2014 (Local Time) from KBAB Reporting Station
Overcast Overcast  
Wind Chill: 50°   Ceiling: 400
Heat Index: 50°   Visibility: 2.5mi
Dew Point: 50°   Wind: 6mph
Humidity: 100%   Direction: 360°N
Pressure: 30.11"   Gusts: NA
Location:  39.1912°N, 121.489°W
Report Text: KBAB 211743Z 36005KT 2 1/2SM OVC004 10/10 A3011 RMK AO2A VIS 1/2 RWY15 $
Loading
Personal Weather Stations






























Interactive Weather Map New forecast layout! Learn more

10-Day Weather Forecast

Advertisements
Track Severe Weather on mobile